Latest Coastal Weather Observations for Carnarvon

IDW60701

Issued at 9:53 pm WST Monday 4 May 2026 (issued every 10 minutes, with the page automatically refreshed every 10 minutes)

About coastal observations | Map of coastal stations | Coastal observations for WA | Marine services | Other Formats
Station Details ID: 006011 Name: CARNARVON AIRPORT Lat: -24.89 Lon: 113.67 Height: 4.0 m
Data from the previous 72 hours. | See also: Recent months at Carnarvon
Date/Time
WST
Wind Sea
Height
m
Swell Vis
km
Cloud Weather Temp
°C
Press
MSL
hPa
Rain since
9am
mm
Dir  Spd
kts
Gust
kts
Height
m
Period
s
Dir
04/09:30pm ESE 9 11 - - - - 10 - - 24.2 1017.1 0.0
04/09:00pm ESE 9 11 - - - - 10 - - 24.7 1017.3 0.0
04/08:30pm ESE 9 11 - - - - 10 - - 25.5 1017.3 0.0
04/08:00pm SE 9 11 - - - - 10 - - 25.4 1016.9 0.0
04/07:30pm SE 9 11 - - - - 10 - - 25.9 1017.0 0.0
04/07:00pm SE 10 11 - - - - 10 - - 27.1 1016.7 0.0
04/06:30pm SE 8 9 - - - - 10 - - 27.0 1016.5 0.0
04/06:00pm ESE 9 11 - - - - 10 - - 29.3 1016.0 0.0
04/05:30pm ESE 10 14 - - - - 10 - - 31.0 1015.7 0.0
04/05:00pm ESE 9 15 - - - - 10 - - 31.4 1015.7 0.0
04/04:30pm ESE 9 15 - - - - 10 - - 32.4 1015.7 0.0
04/04:00pm SSW 10 13 - - - - 10 - - 28.6 1015.6 0.0
04/03:30pm ESE 9 13 - - - - 10 - - 32.0 1015.7 0.0
04/03:00pm ESE 10 21 - - - - 10 - - 33.6 1015.7 0.0
04/02:30pm ENE 8 12 - - - - 10 - - 33.1 1015.9 0.0
04/02:00pm ESE 9 15 - - - - 10 - - 32.4 1015.9 0.0
04/01:30pm ENE 10 16 - - - - 10 - - 33.2 1016.2 0.0
04/01:00pm ENE 9 13 - - - - 10 - - 32.3 1016.8 0.0
04/12:30pm ENE 9 15 - - - - 10 - - 32.2 1017.1 0.0
04/12:00pm E 10 14 - - - - 10 - - 30.9 1017.6 0.0
04/11:30am E 10 16 - - - - 10 - - 30.9 1018.3 0.0
04/11:00am ENE 12 17 - - - - 10 - - 29.5 1018.4 0.0
04/10:30am E 13 17 - - - - 10 - - 29.2 1018.7 0.0
04/10:00am E 15 20 - - - - 10 - - 27.7 1018.8 0.0
04/09:30am E 14 20 - - - - 10 Mostly clear - 26.2 1018.8 0.0
04/09:00am E 14 19 - - - - 10 Partly cloudy - 24.2 1019.0 0.0
04/08:30am ESE 11 14 - - - - 10 Mostly clear - 22.0 1018.8 0.0
04/08:00am ESE 9 12 - - - - 10 Partly cloudy - 20.6 1018.7 0.0
04/07:30am ESE 8 12 - - - - 10 Partly cloudy - 18.5 1018.3 0.0
04/07:00am SE 9 11 - - - - 10 - - 17.3 1018.0 0.0
04/06:30am SE 8 9 - - - - 10 - - 15.9 1017.6 0.0
04/06:00am SE 9 9 - - - - 10 - - 15.4 1017.6 0.0
04/05:30am SE 8 9 - - - - 10 - - 15.3 1017.5 0.0
04/05:00am SE 8 9 - - - - 10 - - 15.5 1017.4 0.0
04/04:30am SE 8 9 - - - - 10 - - 15.5 1017.4 0.0
04/04:00am SE 8 9 - - - - 10 - - 15.9 1017.2 0.0
04/03:30am SE 8 9 - - - - 10 - - 15.9 1017.2 0.0
04/03:00am SE 9 10 - - - - 10 - - 15.6 1017.1 0.0
04/02:30am SSE 9 10 - - - - 10 Mostly clear - 15.5 1017.2 0.0
04/02:00am SSE 8 9 - - - - 10 - - 15.4 1017.4 0.0
04/01:30am SSE 7 9 - - - - 10 - - 15.6 1017.4 0.0
04/01:00am SSE 7 8 - - - - 10 - - 16.1 1017.5 0.0
04/12:30am SSE 8 8 - - - - 10 - - 16.2 1017.5 0.0
04/12:00am SSE 7 8 - - - - 10 - - 16.8 1017.7 0.0
 
Date/Time
WST
Wind Sea
Height
m
Swell Vis
km
Cloud Weather Temp
°C
Press
MSL
hPa
Rain since
9am
mm
Dir  Spd
kts
Gust
kts
Height
m
Period
s
Dir
03/11:30pm SSE 8 9 - - - - 10 - - 17.4 1017.6 0.0
03/11:00pm SSE 8 9 - - - - 10 - - 18.0 1017.7 0.0
03/10:30pm SSE 8 9 - - - - 10 - - 18.6 1017.7 0.0
03/10:00pm SSE 7 8 - - - - 10 - - 19.4 1017.7 0.0
03/09:30pm SSE 9 10 - - - - 10 - - 20.3 1017.5 0.0
03/09:00pm SSE 9 11 - - - - 10 - - 20.4 1017.4 0.0
03/08:30pm S 8 9 - - - - 10 - - 20.0 1017.3 0.0
03/08:00pm S 8 9 - - - - 10 Mostly clear - 20.5 1016.9 0.0
03/07:30pm S 9 10 - - - - 10 Partly cloudy - 20.9 1016.6 0.0
03/07:00pm S 9 10 - - - - 10 Mostly clear - 21.4 1016.5 0.0
03/06:30pm S 10 12 - - - - 10 Partly cloudy - 21.9 1016.0 0.0
03/06:00pm S 10 14 - - - - 10 Mostly clear - 22.1 1015.7 0.0
03/05:30pm SSW 11 14 - - - - 10 - - 23.3 1015.3 0.0
03/05:00pm SSW 13 17 - - - - 10 - - 23.8 1015.1 0.0
03/04:30pm SSW 15 17 - - - - 10 - - 23.9 1015.0 0.0
03/04:00pm SSW 16 19 - - - - 10 - - 23.4 1015.0 0.0
03/03:30pm SSW 13 17 - - - - 10 - - 24.3 1015.0 0.0
03/03:00pm SE 10 14 - - - - 10 - - 27.8 1015.1 0.0
03/02:30pm ESE 10 15 - - - - 10 - - 29.4 1015.2 0.0
03/02:00pm ESE 11 15 - - - - 10 - - 28.8 1015.5 0.0
03/01:30pm SE 13 18 - - - - 10 - - 28.2 1015.7 0.0
03/01:00pm ESE 13 19 - - - - 10 - - 27.8 1016.0 0.0
03/12:30pm ESE 13 18 - - - - 10 - - 27.3 1016.5 0.0
03/12:00pm ESE 13 19 - - - - 10 - - 27.4 1016.9 0.0
03/11:30am ESE 15 22 - - - - 10 - - 25.6 1017.2 0.0
03/11:00am ESE 15 21 - - - - 10 - - 24.5 1017.6 0.0
03/10:30am ESE 16 21 - - - - 10 - - 23.2 1017.7 0.0
03/10:00am ESE 17 24 - - - - 10 - - 22.6 1017.9 0.0
03/09:30am ESE 18 23 - - - - 10 - - 21.3 1018.0 0.0
03/09:00am ESE 18 22 - - - - 10 - - 20.1 1018.0 0.0
03/08:30am ESE 17 22 - - - - 10 - - 18.5 1018.0 0.0
03/08:00am SE 15 21 - - - - 10 - - 17.0 1017.7 0.0
03/07:30am SE 13 19 - - - - 10 - - 15.4 1017.5 0.0
03/07:00am SE 12 15 - - - - 10 - - 14.1 1017.4 0.0
03/06:30am SE 12 16 - - - - 10 - - 14.1 1017.2 0.0
03/06:00am SE 13 16 - - - - 10 - - 14.3 1017.1 0.0
03/05:30am SE 11 14 - - - - 10 - - 13.7 1017.0 0.0
03/05:00am SSE 11 13 - - - - 10 - - 13.6 1017.0 0.0
03/04:30am SSE 12 17 - - - - 10 - - 13.8 1017.0 0.0
03/04:00am SSE 10 13 - - - - 10 - - 13.5 1017.2 0.0
03/03:30am SSE 11 14 - - - - 10 - - 13.7 1017.2 0.0
03/03:00am SSE 10 12 - - - - 10 - - 13.8 1017.5 0.0
03/02:30am SSE 11 15 - - - - 10 - - 14.7 1017.7 0.0
03/02:00am SSE 13 17 - - - - 10 - - 15.2 1017.7 0.0
03/01:30am SSE 13 17 - - - - 10 - - 15.6 1017.8 0.0
03/01:00am SSE 15 20 - - - - 10 - - 16.1 1017.8 0.0
03/12:30am SSE 13 17 - - - - 10 - - 16.4 1017.7 0.0
03/12:00am SSE 12 15 - - - - 10 - - 16.2 1017.6 0.0
 
Date/Time
WST
Wind Sea
Height
m
Swell Vis
km
Cloud Weather Temp
°C
Press
MSL
hPa
Rain since
9am
mm
Dir  Spd
kts
Gust
kts
Height
m
Period
s
Dir
02/11:30pm SSE 11 14 - - - - 10 - - 16.2 1017.6 0.0
02/11:00pm SSE 10 12 - - - - 10 - - 16.3 1017.8 0.0
02/10:30pm SSE 9 10 - - - - 10 - - 15.7 1017.9 0.0
02/10:00pm SSE 10 11 - - - - 10 - - 16.8 1018.0 0.0
02/09:30pm SSE 10 13 - - - - 10 - - 16.6 1017.9 0.0
02/09:00pm SSE 9 10 - - - - 10 - - 15.6 1017.6 0.0
02/08:30pm SSE 10 11 - - - - 10 - - 16.6 1017.5 0.0
02/08:00pm SSE 9 9 - - - - 10 - - 15.8 1017.3 0.0
02/07:30pm SE 8 9 - - - - 10 - - 17.5 1016.9 0.0
02/07:00pm SE 9 11 - - - - 10 - - 19.9 1016.5 0.0
02/06:30pm SE 11 14 - - - - 10 - - 21.0 1016.2 0.0
02/06:00pm SE 11 15 - - - - 10 - - 21.8 1015.7 0.0
02/05:30pm SE 14 19 - - - - 10 - - 23.0 1015.5 0.0
02/05:00pm SE 17 22 - - - - 10 - - 23.7 1015.3 0.0
02/04:30pm SSE 16 22 - - - - 10 - - 24.2 1015.2 0.0
02/04:00pm SE 16 24 - - - - 10 - - 24.6 1015.5 0.0
02/03:30pm SE 18 23 - - - - 10 - - 24.6 1015.8 0.0
02/03:00pm SE 17 22 - - - - 10 Mostly clear - 24.6 1015.7 0.0
02/02:30pm SSE 18 25 - - - - 10 - - 23.7 1015.7 0.0
02/02:00pm SE 17 24 - - - - 10 - - 23.6 1016.0 0.0
02/01:30pm SSE 17 24 - - - - 10 - - 23.5 1016.5 0.0
02/01:00pm SSE 18 23 - - - - 10 - - 22.6 1017.1 0.0
02/12:30pm SE 15 23 - - - - 10 - - 22.9 1017.8 0.0
02/12:00pm SE 16 24 - - - - 10 - - 22.4 1018.0 0.0
02/11:30am SE 17 24 - - - - 10 - - 22.2 1018.6 0.0
02/11:10am SE 15 26 - - - - 10 - - 22.4 1019.0 0.0
02/11:00am SE 15 21 - - - - 10 - - 21.8 1019.3 0.0
02/10:30am SE 15 21 - - - - 10 - - 20.5 1019.6 0.0
02/10:00am SE 16 21 - - - - 10 - - 20.8 1019.9 0.0
02/09:30am SE 18 23 - - - - 10 - - 19.5 1020.0 0.0
02/09:00am SE 16 21 - - - - 10 - - 19.0 1020.0 0.0
02/08:30am SSE 14 19 - - - - 10 - - 18.1 1020.0 0.0
02/08:00am SSE 11 14 - - - - 10 - - 16.5 1019.9 0.0
02/07:30am SE 11 13 - - - - 10 - - 15.6 1019.4 0.0
02/07:00am SSE 11 14 - - - - 10 - - 15.6 1018.9 0.0
02/06:30am SSE 14 21 - - - - 10 - - 15.8 1018.1 0.0
02/06:00am SSE 13 17 - - - - 10 - - 16.0 1017.8 0.0
02/05:30am SSE 15 20 - - - - 10 - - 16.4 1017.4 0.0
02/05:00am SE 14 19 - - - - 10 - - 16.6 1017.1 0.0
02/04:30am SE 13 17 - - - - 10 - - 16.7 1017.5 0.0
02/04:00am SE 14 19 - - - - 10 - - 17.1 1017.5 0.0
02/03:30am SSE 14 19 - - - - 10 - - 17.4 1017.6 0.0
02/03:00am SSE 16 21 - - - - 10 - - 17.8 1017.5 0.0
02/02:30am SSE 15 19 - - - - 10 - - 18.1 1017.7 0.0
02/02:00am SSE 15 20 - - - - 10 - - 18.2 1017.8 0.0
02/01:30am SSE 15 19 - - - - 10 - - 18.3 1017.9 0.0
02/01:00am SSE 17 23 - - - - 10 - - 18.9 1018.1 0.0
02/12:30am SSE 18 25 - - - - 10 - - 19.6 1018.0 0.0
02/12:00am SSE 18 24 - - - - 10 - - 19.7 1018.1 0.0
 
Date/Time
WST
Wind Sea
Height
m
Swell Vis
km
Cloud Weather Temp
°C
Press
MSL
hPa
Rain since
9am
mm
Dir  Spd
kts
Gust
kts
Height
m
Period
s
Dir
01/11:30pm SSE 17 22 - - - - 10 - - 19.8 1018.3 0.0
01/11:00pm SSE 15 20 - - - - 10 - - 19.9 1018.6 0.0
01/10:30pm SSE 13 18 - - - - 10 - - 19.9 1018.7 0.0
01/10:00pm S 16 23 - - - - 10 - - 20.4 1018.5 0.0

Other formats

Comma delimited format used in spreadsheet applications
http://www.bom.gov.au/fwo/IDW60701/IDW60701.94300.axf

JavaScript Object Notation format (JSON) in row-major order
http://www.bom.gov.au/fwo/IDW60701/IDW60701.94300.json

Data quality

Most of these data are generated automatically and are frequently updated. Quality checks on data are not normally performed. It is possible for incorrect values to appear. Refer to information at About Latest Weather Observations and please check the disclaimer before using these data.